Thunder radar more information blitzortung!


Radar de pluja more information rain snow radar


Visita la nostra xarxa de llocs de meteo:

Template documentation
and downloads

And another site



No particular awareness of the weather is required.    There are no Weather-warnings

Pagina Historial Weather Underground text

Diari Resum Abril 28, 2016 Unitats:  Mètric    Imperial   Tant
« Previous Dia
SegĂźent Dia »
Diari Setmana Mensual Anual Personalitzada
  Maxima: Minima: Media:
Temperatura: 13.9 °C 9.3 °C 11.1 °C
Punt de rosada: 10.1 °C 6.7 °C 8.2 °C
Humitat: 87 % 77 % 82 %
Wind Speed: 9.3 km/h 0.0 km/h 3.9 km/h
RĂ fegues de vent: 9.7 km/h - -
Vent:- - South
Pression baro: 1018.8 hPa 1012.8 hPa -
Precipitacions: 7.4 mm    
Historical Graphs
 
 
Dades de taula per Abril 28, 2016
Temps Temperatura Punt de rosada Pression baro Vent Wind Speed RĂ fegues de vent Humitat Rainfall Rate (Hourly)
00:02 10.5 °C 6.8 °C 1013.8 hPa East 3.9 km/h 3.9 km/h 78 % 0.0 mm
00:05 9.7 °C 7.1 °C 1013.8 hPa ENE 3.2 km/h 4.8 km/h 84 % 0.0 mm
00:15 9.7 °C 7.1 °C 1013.8 hPa ENE 3.2 km/h 8.0 km/h 84 % 0.0 mm
00:25 9.8 °C 7.2 °C 1013.8 hPa ENE 1.6 km/h 3.2 km/h 84 % 0.0 mm
00:35 9.7 °C 7.1 °C 1013.8 hPa ENE 3.2 km/h 4.8 km/h 84 % 0.0 mm
00:45 9.7 °C 7.1 °C 1013.8 hPa NE 4.8 km/h 4.8 km/h 84 % 0.0 mm
00:55 9.7 °C 7.1 °C 1013.8 hPa NE 3.2 km/h 6.4 km/h 84 % 0.0 mm
01:05 9.6 °C 7.0 °C 1013.8 hPa NE 4.8 km/h 6.4 km/h 84 % 0.0 mm
01:15 9.6 °C 7.0 °C 1013.8 hPa ENE 4.8 km/h 6.4 km/h 84 % 0.0 mm
01:25 9.6 °C 7.0 °C 1013.8 hPa ENE 4.8 km/h 8.0 km/h 84 % 0.0 mm
01:35 9.6 °C 7.0 °C 1013.8 hPa ENE 4.8 km/h 8.0 km/h 84 % 0.0 mm
01:45 9.6 °C 7.0 °C 1013.8 hPa ENE 4.8 km/h 6.4 km/h 84 % 0.0 mm
01:55 9.6 °C 7.2 °C 1013.8 hPa ENE 1.6 km/h 4.8 km/h 85 % 0.0 mm
02:05 9.6 °C 7.2 °C 1013.8 hPa ENE 3.2 km/h 6.4 km/h 85 % 0.0 mm
02:15 9.6 °C 7.2 °C 1013.8 hPa NE 3.2 km/h 4.8 km/h 85 % 0.0 mm
02:35 9.6 °C 7.4 °C 1013.8 hPa ENE 1.6 km/h 4.8 km/h 86 % 0.0 mm
02:55 9.7 °C 7.7 °C 1013.8 hPa ENE 1.6 km/h 3.2 km/h 87 % 0.0 mm
03:05 9.8 °C 7.7 °C 1012.8 hPa ENE 4.8 km/h 6.4 km/h 87 % 0.0 mm
03:15 9.8 °C 7.7 °C 1013.8 hPa ENE 4.8 km/h 4.8 km/h 87 % 0.0 mm
03:25 9.8 °C 7.6 °C 1013.8 hPa ENE 1.6 km/h 9.7 km/h 86 % 0.0 mm
03:35 9.7 °C 7.4 °C 1013.8 hPa ENE 4.8 km/h 8.0 km/h 86 % 0.0 mm
03:45 9.7 °C 7.4 °C 1014.8 hPa ENE 1.6 km/h 4.8 km/h 86 % 0.0 mm
03:55 9.7 °C 7.4 °C 1014.8 hPa ENE 4.8 km/h 6.4 km/h 86 % 0.0 mm
04:05 9.7 °C 7.4 °C 1014.8 hPa ENE 3.2 km/h 4.8 km/h 86 % 0.0 mm
04:15 9.8 °C 7.6 °C 1013.8 hPa East 4.8 km/h 6.4 km/h 86 % 0.0 mm
04:25 9.8 °C 7.6 °C 1013.8 hPa East 3.2 km/h 6.4 km/h 86 % 0.0 mm
04:35 9.9 °C 7.7 °C 1014.8 hPa East 3.2 km/h 3.2 km/h 86 % 0.0 mm
04:45 10.0 °C 7.8 °C 1014.8 hPa East 4.8 km/h 4.8 km/h 86 % 0.0 mm
04:55 9.9 °C 7.5 °C 1014.8 hPa East 4.8 km/h 6.4 km/h 85 % 0.0 mm
05:05 10.0 °C 7.6 °C 1014.8 hPa East 1.6 km/h 3.2 km/h 85 % 0.0 mm
05:15 10.0 °C 7.6 °C 1014.8 hPa ENE 1.6 km/h 4.8 km/h 85 % 0.0 mm
05:25 10.0 °C 7.6 °C 1014.8 hPa NE 1.6 km/h 4.8 km/h 85 % 0.0 mm
05:35 10.0 °C 7.6 °C 1015.8 hPa ENE 1.6 km/h 4.8 km/h 85 % 0.0 mm
05:45 10.0 °C 7.6 °C 1014.8 hPa SSE 4.8 km/h 6.4 km/h 85 % 0.0 mm
05:55 10.0 °C 7.8 °C 1014.8 hPa ESE 3.2 km/h 6.4 km/h 86 % 0.0 mm
06:05 10.0 °C 7.8 °C 1015.8 hPa East 1.6 km/h 3.2 km/h 86 % 0.0 mm
06:15 9.9 °C 7.7 °C 1015.8 hPa East 3.2 km/h 4.8 km/h 86 % 0.0 mm
11:22 9.8 °C 7.6 °C 1015.8 hPa SW 3.7 km/h 3.7 km/h 86 % 6.3 mm
11:27 9.8 °C 7.6 °C 1015.8 hPa ESE 3.7 km/h 3.7 km/h 86 % 6.3 mm
11:32 9.8 °C 7.6 °C 1015.8 hPa ESE 3.9 km/h 3.9 km/h 86 % 6.3 mm
11:37 9.8 °C 7.6 °C 1015.8 hPa ENE 5.8 km/h 5.8 km/h 86 % 6.3 mm
11:42 9.8 °C 7.6 °C 1015.8 hPa East 3.7 km/h 3.7 km/h 86 % 6.3 mm
11:47 9.8 °C 7.6 °C 1015.8 hPa ENE 3.7 km/h 3.7 km/h 86 % 6.3 mm
11:57 10.1 °C 7.9 °C 1015.8 hPa ESE 3.7 km/h 3.9 km/h 86 % 7.4 mm
12:02 10.0 °C 7.8 °C 1015.8 hPa SE 3.7 km/h 3.7 km/h 86 % 7.4 mm
12:07 10.0 °C 7.8 °C 1015.8 hPa ESE 5.6 km/h 5.6 km/h 86 % 7.4 mm
12:12 10.1 °C 8.1 °C 1015.8 hPa ESE 5.6 km/h 5.6 km/h 87 % 7.4 mm
12:17 9.9 °C 7.8 °C 1015.8 hPa ESE 7.4 km/h 7.4 km/h 87 % 7.4 mm
12:27 9.8 °C 7.6 °C 1015.8 hPa ENE 3.7 km/h 3.7 km/h 86 % 1.0 mm
12:32 9.8 °C 7.7 °C 1015.8 hPa ENE 3.7 km/h 3.7 km/h 87 % 1.0 mm
12:37 9.8 °C 7.7 °C 1015.8 hPa ENE 4.2 km/h 4.2 km/h 87 % 1.0 mm
12:42 9.8 °C 7.7 °C 1015.8 hPa East 2.3 km/h 2.3 km/h 87 % 1.0 mm
12:47 9.9 °C 7.8 °C 1015.8 hPa East 3.7 km/h 3.7 km/h 87 % 1.0 mm
12:52 9.9 °C 7.8 °C 1015.8 hPa East 3.7 km/h 3.9 km/h 87 % 0.0 mm
12:57 10.0 °C 7.9 °C 1015.8 hPa East 1.9 km/h 1.9 km/h 87 % 0.0 mm
13:02 10.1 °C 8.1 °C 1015.8 hPa SE 3.7 km/h 3.7 km/h 87 % 0.0 mm
13:07 10.1 °C 8.1 °C 1015.8 hPa ESE 3.7 km/h 3.7 km/h 87 % 0.0 mm
13:12 10.1 °C 8.1 °C 1015.8 hPa ENE 3.7 km/h 3.7 km/h 87 % 0.0 mm
13:17 10.2 °C 8.1 °C 1015.8 hPa SSE 5.6 km/h 5.6 km/h 87 % 0.0 mm
13:22 10.2 °C 8.1 °C 1015.8 hPa ESE 5.6 km/h 5.6 km/h 87 % 0.0 mm
13:27 10.1 °C 8.1 °C 1015.8 hPa East 5.6 km/h 5.6 km/h 87 % 0.0 mm
13:37 10.1 °C 8.1 °C 1015.8 hPa ESE 5.6 km/h 5.6 km/h 87 % 0.0 mm
13:42 10.2 °C 7.9 °C 1015.8 hPa East 5.6 km/h 5.6 km/h 86 % 0.0 mm
13:47 10.2 °C 7.9 °C 1015.8 hPa ESE 5.6 km/h 5.6 km/h 86 % 0.0 mm
13:52 10.2 °C 7.9 °C 1015.8 hPa East 5.6 km/h 5.6 km/h 86 % 0.0 mm
13:57 10.5 °C 8.3 °C 1015.8 hPa ESE 3.7 km/h 3.7 km/h 86 % 0.0 mm
14:02 10.7 °C 8.4 °C 1015.8 hPa ENE 2.6 km/h 2.6 km/h 86 % 0.0 mm
14:07 10.7 °C 8.4 °C 1015.8 hPa ENE 1.9 km/h   86 % 0.0 mm
14:12 10.9 °C 8.7 °C 1015.8 hPa ENE 1.9 km/h 1.9 km/h 86 % 0.0 mm
14:17 10.9 °C 8.5 °C 1015.8 hPa WSW 3.7 km/h 3.7 km/h 85 % 0.0 mm
14:32 11.0 °C 8.7 °C 1015.8 hPa SW 2.3 km/h   86 % 0.0 mm
14:37 10.9 °C 8.5 °C 1015.8 hPa ESE 1.9 km/h 1.9 km/h 85 % 0.0 mm
14:42 11.2 °C 8.8 °C 1015.8 hPa SW 2.6 km/h   85 % 0.0 mm
14:47 11.3 °C 8.9 °C 1015.8 hPa SW 1.9 km/h 1.9 km/h 85 % 0.0 mm
14:52 11.4 °C 8.9 °C 1015.8 hPa WSW 3.9 km/h 3.9 km/h 85 % 0.0 mm
14:57 11.5 °C 9.1 °C 1014.8 hPa Calm     85 % 0.0 mm
15:02 11.5 °C 9.1 °C 1014.8 hPa WSW 3.7 km/h   85 % 0.0 mm
15:07 11.6 °C 9.2 °C 1014.8 hPa WSW 1.4 km/h   85 % 0.0 mm
15:12 11.5 °C 8.9 °C 1015.8 hPa ESE 3.7 km/h 3.7 km/h 84 % 0.0 mm
15:17 11.6 °C 9.0 °C 1015.8 hPa SSE 3.7 km/h   84 % 0.0 mm
15:22 11.7 °C 9.1 °C 1015.8 hPa SW 3.9 km/h 3.9 km/h 84 % 0.0 mm
15:27 11.6 °C 9.0 °C 1015.8 hPa WSW 7.4 km/h 7.4 km/h 84 % 0.0 mm
15:32 11.7 °C 9.1 °C 1015.8 hPa WSW 1.9 km/h 2.3 km/h 84 % 0.0 mm
15:37 11.8 °C 9.2 °C 1015.8 hPa SW 2.3 km/h 2.3 km/h 84 % 0.0 mm
15:42 11.9 °C 9.3 °C 1015.8 hPa West 2.3 km/h 2.3 km/h 84 % 0.0 mm
15:47 11.9 °C 9.3 °C 1015.8 hPa WSW 3.7 km/h 3.7 km/h 84 % 0.0 mm
15:52 12.1 °C 9.5 °C 1015.8 hPa WNW 3.7 km/h 3.7 km/h 84 % 0.0 mm
15:57 12.2 °C 9.4 °C 1015.8 hPa WSW 3.7 km/h 3.7 km/h 83 % 0.0 mm
16:02 12.3 °C 9.3 °C 1015.8 hPa NE 3.7 km/h 3.7 km/h 82 % 0.0 mm
16:07 12.4 °C 9.2 °C 1015.8 hPa NE 1.9 km/h   81 % 0.0 mm
16:12 12.9 °C 9.7 °C 1014.8 hPa WSW 3.7 km/h 3.7 km/h 81 % 0.0 mm
16:17 12.9 °C 9.6 °C 1014.8 hPa West 3.7 km/h 3.7 km/h 80 % 0.0 mm
16:22 13.0 °C 9.6 °C 1014.8 hPa SW 4.7 km/h 4.7 km/h 80 % 0.0 mm
16:27 13.0 °C 9.4 °C 1015.8 hPa SW 5.6 km/h 5.6 km/h 79 % 0.0 mm
16:32 13.0 °C 9.3 °C 1015.8 hPa WSW 4.2 km/h 4.2 km/h 78 % 0.0 mm
16:37 13.0 °C 9.3 °C 1015.8 hPa NW 1.9 km/h 1.9 km/h 78 % 0.0 mm
16:42 13.4 °C 9.7 °C 1015.8 hPa SSE 5.6 km/h 5.6 km/h 78 % 0.0 mm
16:47 13.2 °C 9.3 °C 1015.8 hPa South 3.7 km/h 3.7 km/h 77 % 0.0 mm
16:57 13.3 °C 9.6 °C 1015.8 hPa SW 5.0 km/h 5.0 km/h 78 % 0.0 mm
17:02 13.2 °C 9.3 °C 1015.8 hPa SW 7.4 km/h 7.4 km/h 77 % 0.0 mm
17:07 13.2 °C 9.4 °C 1015.8 hPa SSW 3.7 km/h 3.7 km/h 78 % 0.0 mm
17:12 13.3 °C 9.6 °C 1015.8 hPa SW 4.7 km/h 4.7 km/h 78 % 0.0 mm
17:17 13.3 °C 9.6 °C 1015.8 hPa WSW 3.7 km/h 4.2 km/h 78 % 0.0 mm
17:22 13.4 °C 9.7 °C 1015.8 hPa SW 3.7 km/h 3.7 km/h 78 % 0.0 mm
17:32 13.9 °C 10.1 °C 1015.8 hPa SSW 2.3 km/h 2.3 km/h 78 % 0.0 mm
17:37 13.5 °C 9.6 °C 1015.8 hPa SW 3.7 km/h 3.7 km/h 77 % 0.0 mm
17:42 13.4 °C 9.4 °C 1014.8 hPa WSW 7.4 km/h 7.4 km/h 77 % 0.0 mm
17:47 13.4 °C 9.4 °C 1014.8 hPa WSW 3.9 km/h   77 % 0.0 mm
17:52 13.3 °C 9.3 °C 1014.8 hPa WNW 1.9 km/h   77 % 0.0 mm
17:57 13.2 °C 9.3 °C 1015.8 hPa SW 3.7 km/h 3.7 km/h 77 % 0.0 mm
18:02 13.3 °C 9.3 °C 1015.8 hPa WSW 3.5 km/h 3.5 km/h 77 % 0.0 mm
18:07 13.3 °C 9.3 °C 1015.8 hPa SW 5.6 km/h 5.6 km/h 77 % 0.0 mm
18:12 13.4 °C 9.4 °C 1015.8 hPa SW 5.6 km/h 5.6 km/h 77 % 0.0 mm
18:17 13.3 °C 9.3 °C 1015.8 hPa SW 5.6 km/h 5.6 km/h 77 % 0.0 mm
18:22 13.2 °C 9.3 °C 1015.8 hPa SW 5.6 km/h 5.6 km/h 77 % 0.0 mm
18:27 13.2 °C 9.3 °C 1014.8 hPa SW 6.4 km/h 6.4 km/h 77 % 0.0 mm
18:32 13.2 °C 9.3 °C 1014.8 hPa WSW 3.9 km/h 3.9 km/h 77 % 0.0 mm
18:37 13.1 °C 9.2 °C 1014.8 hPa SSW 5.8 km/h 5.8 km/h 77 % 0.0 mm
18:42 13.0 °C 9.1 °C 1014.8 hPa WSW 7.4 km/h 7.4 km/h 77 % 0.0 mm
18:47 12.9 °C 8.9 °C 1014.8 hPa WSW 7.4 km/h 7.4 km/h 77 % 0.0 mm
18:52 12.9 °C 8.9 °C 1014.8 hPa West 5.6 km/h 5.6 km/h 77 % 0.0 mm
18:57 12.8 °C 8.9 °C 1015.8 hPa WSW 7.4 km/h 7.4 km/h 77 % 0.0 mm
19:02 12.8 °C 8.9 °C 1015.8 hPa SSW 5.6 km/h 5.6 km/h 77 % 0.0 mm
19:07 12.8 °C 8.9 °C 1015.8 hPa WSW 7.4 km/h 7.4 km/h 77 % 0.0 mm
19:12 12.7 °C 8.8 °C 1015.8 hPa SW 8.7 km/h 8.7 km/h 77 % 0.0 mm
19:17 12.7 °C 8.8 °C 1015.8 hPa SW 5.6 km/h 5.6 km/h 77 % 0.0 mm
19:22 12.6 °C 8.7 °C 1015.8 hPa WSW 3.7 km/h 3.7 km/h 77 % 0.0 mm
19:25 10.3 °C 7.3 °C 1017.8 hPa Calm     82 % 0.0 mm
19:27 12.6 °C 8.7 °C 1014.8 hPa West 3.7 km/h 3.9 km/h 77 % 0.0 mm
19:32 12.5 °C 8.6 °C 1014.8 hPa SW 3.7 km/h 3.9 km/h 77 % 0.0 mm
19:35 10.1 °C 7.2 °C 1017.8 hPa Calm   1.6 km/h 82 % 0.0 mm
19:37 12.4 °C 8.5 °C 1014.8 hPa WSW 7.4 km/h 7.4 km/h 77 % 0.0 mm
19:42 12.4 °C 8.5 °C 1014.8 hPa WSW 6.9 km/h 6.9 km/h 77 % 0.0 mm
19:45 9.9 °C 6.9 °C 1018.8 hPa WSW 1.6 km/h 4.8 km/h 82 % 0.0 mm
19:47 12.4 °C 8.5 °C 1014.8 hPa WSW 7.4 km/h 7.4 km/h 77 % 0.0 mm
19:52 12.3 °C 8.4 °C 1014.8 hPa SW 3.7 km/h 3.7 km/h 77 % 0.0 mm
19:55 9.7 °C 6.8 °C 1018.8 hPa WSW 3.2 km/h 4.8 km/h 82 % 0.0 mm
19:57 12.3 °C 8.4 °C 1015.8 hPa SW 5.6 km/h 5.6 km/h 77 % 0.0 mm
20:02 12.3 °C 8.4 °C 1015.8 hPa West 7.4 km/h 7.4 km/h 77 % 0.0 mm
20:05 9.7 °C 6.9 °C 1018.8 hPa SW 3.2 km/h 4.8 km/h 83 % 0.0 mm
20:07 12.3 °C 8.6 °C 1015.8 hPa SW 5.6 km/h 5.6 km/h 78 % 0.0 mm
20:12 12.1 °C 8.4 °C 1015.8 hPa SW 3.7 km/h 3.7 km/h 78 % 0.0 mm
20:15 9.8 °C 7.1 °C 1018.8 hPa SW 3.2 km/h 4.8 km/h 83 % 0.0 mm
20:17 12.0 °C 8.3 °C 1015.8 hPa WSW 5.6 km/h 5.6 km/h 78 % 0.0 mm
20:22 11.9 °C 8.2 °C 1015.8 hPa WSW 3.7 km/h 3.7 km/h 78 % 0.0 mm
20:25 9.8 °C 7.1 °C 1018.8 hPa WSW 3.2 km/h 4.8 km/h 83 % 0.0 mm
20:27 11.8 °C 8.1 °C 1015.8 hPa SW 4.7 km/h 4.7 km/h 78 % 0.0 mm
20:32 11.7 °C 8.2 °C 1015.8 hPa WSW 3.7 km/h 3.7 km/h 79 % 0.0 mm
20:35 10.0 °C 7.2 °C 1018.8 hPa WSW 3.2 km/h 3.2 km/h 83 % 0.0 mm
20:37 11.7 °C 8.2 °C 1015.8 hPa SW 5.8 km/h 5.8 km/h 79 % 0.0 mm
20:42 11.7 °C 8.2 °C 1015.8 hPa SW 4.2 km/h 4.2 km/h 79 % 0.0 mm
20:45 10.1 °C 7.3 °C 1018.8 hPa Calm   3.2 km/h 83 % 0.0 mm
20:47 11.7 °C 8.2 °C 1015.8 hPa WSW 3.7 km/h 3.7 km/h 79 % 0.0 mm
20:52 11.7 °C 8.2 °C 1015.8 hPa WSW 7.4 km/h 7.4 km/h 79 % 0.0 mm
20:55 10.1 °C 7.5 °C 1018.8 hPa Calm     84 % 0.0 mm
20:57 11.7 °C 8.2 °C 1015.8 hPa WSW 5.3 km/h 5.3 km/h 79 % 0.0 mm
21:02 11.6 °C 8.1 °C 1015.8 hPa SW 4.7 km/h 4.7 km/h 79 % 0.0 mm
21:05 10.1 °C 7.5 °C 1018.8 hPa Calm     84 % 0.0 mm
21:07 11.6 °C 8.1 °C 1015.8 hPa WSW 5.6 km/h 5.6 km/h 79 % 0.0 mm
21:12 11.6 °C 8.1 °C 1016.8 hPa SSW 5.6 km/h 5.6 km/h 79 % 0.0 mm
21:15 10.2 °C 7.6 °C 1018.8 hPa Calm     84 % 0.0 mm
21:17 11.6 °C 8.1 °C 1016.8 hPa SW 3.7 km/h 3.7 km/h 79 % 0.0 mm
21:22 11.6 °C 8.1 °C 1016.8 hPa SW 3.7 km/h 3.7 km/h 79 % 0.0 mm
21:25 10.2 °C 7.4 °C 1018.8 hPa Calm     83 % 0.0 mm
21:27 11.6 °C 8.1 °C 1016.8 hPa SW 4.7 km/h 4.7 km/h 79 % 0.0 mm
21:32 11.6 °C 8.1 °C 1016.8 hPa SW 3.7 km/h 3.7 km/h 79 % 0.0 mm
21:35 10.2 °C 7.4 °C 1018.8 hPa Calm     83 % 0.0 mm
21:37 11.5 °C 8.0 °C 1016.8 hPa SW 5.6 km/h 5.6 km/h 79 % 0.0 mm
21:42 11.5 °C 8.2 °C 1017.8 hPa SSW 3.7 km/h 3.9 km/h 80 % 0.0 mm
21:45 10.1 °C 7.3 °C 1018.8 hPa Calm   1.6 km/h 83 % 0.0 mm
21:47 11.5 °C 8.2 °C 1017.8 hPa WSW 3.7 km/h 3.7 km/h 80 % 0.0 mm
21:52 11.5 °C 8.2 °C 1017.8 hPa SW 5.6 km/h 5.6 km/h 80 % 0.0 mm
21:55 10.0 °C 7.2 °C 1018.8 hPa SW 1.6 km/h 4.8 km/h 83 % 0.0 mm
21:57 11.5 °C 8.2 °C 1017.8 hPa SW 5.6 km/h 5.6 km/h 80 % 0.0 mm
22:02 11.4 °C 8.3 °C 1017.8 hPa SW 5.6 km/h 5.6 km/h 81 % 0.0 mm
22:05 9.9 °C 7.2 °C 1018.8 hPa SW 1.6 km/h 3.2 km/h 83 % 0.0 mm
22:12 11.4 °C 8.3 °C 1017.8 hPa WSW 5.6 km/h 5.6 km/h 81 % 0.0 mm
22:15 10.0 °C 7.2 °C 1018.8 hPa SW 1.6 km/h 3.2 km/h 83 % 0.0 mm
22:17 11.3 °C 8.3 °C 1017.8 hPa SSW 5.6 km/h 5.6 km/h 82 % 0.0 mm
22:22 11.3 °C 8.3 °C 1017.8 hPa SW 5.6 km/h 5.6 km/h 82 % 0.0 mm
22:25 10.0 °C 7.4 °C 1018.8 hPa Calm     84 % 0.0 mm
22:27 11.3 °C 8.3 °C 1017.8 hPa WSW 7.4 km/h 7.4 km/h 82 % 0.0 mm
22:32 11.3 °C 8.5 °C 1017.8 hPa SW 7.6 km/h 7.6 km/h 83 % 0.0 mm
22:35 9.8 °C 7.2 °C 1018.8 hPa Calm     84 % 0.0 mm
22:37 11.2 °C 8.4 °C 1017.8 hPa SSW 7.4 km/h 7.4 km/h 83 % 0.0 mm
22:42 11.2 °C 8.6 °C 1017.8 hPa SW 9.3 km/h 9.3 km/h 84 % 0.0 mm
22:45 9.7 °C 7.1 °C 1018.8 hPa WSW 1.6 km/h 3.2 km/h 84 % 0.0 mm
22:47 11.1 °C 8.3 °C 1017.8 hPa SW 5.6 km/h 5.6 km/h 83 % 0.0 mm
22:52 11.1 °C 8.3 °C 1017.8 hPa WSW 7.4 km/h 7.4 km/h 83 % 0.0 mm
22:55 9.6 °C 7.0 °C 1018.8 hPa WSW 1.6 km/h 3.2 km/h 84 % 0.0 mm
22:57 11.0 °C 8.2 °C 1017.8 hPa SW 3.7 km/h 3.7 km/h 83 % 0.0 mm
23:02 10.9 °C 8.1 °C 1017.8 hPa SW 3.7 km/h 3.7 km/h 83 % 0.0 mm
23:05 9.6 °C 7.0 °C 1017.8 hPa WSW 1.6 km/h 1.6 km/h 84 % 0.0 mm
23:08 10.9 °C 8.1 °C 1017.8 hPa West 4.2 km/h 4.2 km/h 83 % 0.0 mm
23:13 10.8 °C 8.0 °C 1017.8 hPa West 3.7 km/h 3.7 km/h 83 % 0.0 mm
23:15 9.4 °C 6.8 °C 1017.8 hPa Calm   3.2 km/h 84 % 0.0 mm
23:18 10.8 °C 8.0 °C 1017.8 hPa WSW 5.6 km/h 5.6 km/h 83 % 0.0 mm
23:23 10.9 °C 8.1 °C 1017.8 hPa WSW 7.4 km/h 7.4 km/h 83 % 0.0 mm
23:25 9.4 °C 6.8 °C 1017.8 hPa Calm     84 % 0.0 mm
23:28 10.9 °C 8.1 °C 1017.8 hPa WSW 5.6 km/h 5.6 km/h 83 % 0.0 mm
23:33 10.9 °C 8.1 °C 1017.8 hPa SW 6.1 km/h 6.1 km/h 83 % 0.0 mm
23:35 9.3 °C 6.7 °C 1018.8 hPa Calm   3.2 km/h 84 % 0.0 mm
23:38 10.9 °C 8.1 °C 1017.8 hPa West 5.6 km/h 5.6 km/h 83 % 0.0 mm
23:43 10.9 °C 8.1 °C 1017.8 hPa West 5.6 km/h 5.6 km/h 83 % 0.0 mm
23:45 9.3 °C 6.9 °C 1018.8 hPa Calm     85 % 0.0 mm
23:48 10.9 °C 8.1 °C 1017.8 hPa West 5.6 km/h 5.6 km/h 83 % 0.0 mm
23:55 9.3 °C 6.9 °C 1018.8 hPa Calm     85 % 0.0 mm
23:58 10.8 °C 7.8 °C 1017.8 hPa WSW 3.7 km/h 3.7 km/h 82 % 0.0 mm
Meteo Sesrovires
Elogis d' Weather Underground - 3.5 mb

Guio original per  Jim McMurry - jmcmurry@mwt.net Adaptat per a la plantilla per  Wim van der Kuil - Leuven-Template.eu

Trobareu la nostra informacio del temps tambe a:

Weather Underground

AWEKAS